IST,Max TemperatureF,Mean TemperatureF,Min TemperatureF,Max Dew PointF,MeanDew PointF,Min DewpointF,Max Humidity, Mean Humidity, Min Humidity, Max Sea Level PressureIn, Mean Sea Level PressureIn, Min Sea Level PressureIn, Max VisibilityMiles, Mean VisibilityMiles, Min VisibilityMiles, Max Wind SpeedMPH, Mean Wind SpeedMPH, Max Gust SpeedMPH,PrecipitationIn, CloudCover, Events, WindDirDegrees
2012-10-1,93,82,71,68,65,57,83,59,30,29.89,29.82,29.77,3,2,2,10,5,,0.00,,,287
2012-10-2,93,82,71,70,66,59,83,58,32,29.83,29.77,29.71,3,2,1,12,2,,0.00,4,,296
2012-10-3,95,85,75,72,66,55,83,58,26,29.77,29.71,29.62,2,2,1,12,2,,0.00,4,,290
2012-10-4,95,83,71,68,61,54,78,50,26,29.71,29.68,29.62,2,2,1,14,3,,0.00,,,274
2012-10-5,95,82,69,63,58,48,69,47,21,29.80,29.75,29.71,3,2,1,13,3,18,0.00,,,276
2012-10-6,95,83,71,63,57,48,64,44,20,29.89,29.84,29.80,2,2,1,13,3,,0.00,,,287
2012-10-7,93,81,69,63,57,50,69,47,23,29.95,29.88,29.83,2,2,1,14,3,,0.00,,,302
2012-10-8,93,80,68,61,56,48,73,46,21,29.92,29.86,29.80,3,2,1,14,4,,0.00,,,288
2012-10-9,91,80,68,61,57,48,78,48,23,29.89,29.82,29.74,3,2,1,10,3,,0.00,,,286
2012-10-10,91,80,68,64,60,54,78,51,28,29.92,29.85,29.80,2,2,1,8,2,,0.00,1,,321
2012-10-11,91,80,68,64,60,54,83,54,28,29.92,29.85,29.80,2,2,1,14,3,,0.00,,,297
2012-10-12,93,80,68,63,58,50,73,50,23,29.89,29.82,29.77,2,2,1,9,3,,0.00,,,296
2012-10-13,95,82,68,64,57,48,83,48,21,29.89,29.84,29.80,3,2,1,12,2,,0.00,,,283
2012-10-14,95,82,69,61,56,50,68,44,22,29.92,29.87,29.83,3,2,1,14,2,,0.00,1,,273
2012-10-15,93,82,71,63,56,54,57,43,26,30.04,29.92,29.89,3,2,1,17,3,29,0.00,2,,309
2012-10-16,87,76,66,61,56,50,73,49,27,30.04,30.00,29.95,3,2,2,12,6,21,0.00,2,,301
2012-10-17,87,76,66,61,60,57,83,54,35,30.04,29.98,29.92,2,2,1,9,4,,0.00,,,315
2012-10-18,87,78,68,63,58,52,83,53,29,30.04,29.96,29.89,2,1,1,9,3,,0.00,,,320
2012-10-19,89,76,64,63,57,50,88,56,26,30.01,29.95,29.92,2,1,1,8,2,,0.00,,Fog,293
2012-10-20,87,76,66,64,60,54,88,57,33,30.04,29.98,29.95,1,1,0,7,2,,0.00,2,Fog,7
2012-10-21,87,78,68,73,60,55,83,58,35,30.06,30.00,29.95,1,1,0,110,3,,0.00,2,Fog,305
2012-10-22,87,76,64,61,57,52,83,55,31,30.06,29.99,29.95,2,1,1,9,2,,0.00,1,,295
2012-10-23,87,76,66,64,59,54,83,63,33,30.04,29.96,29.89,2,1,1,14,2,25,0.00,4,Rain,291
2012-10-24,80,71,62,63,57,54,88,63,39,29.98,29.93,29.89,2,1,1,12,5,,0.00,4,,299
2012-10-25,80,70,59,59,55,50,88,62,34,29.98,29.90,29.83,2,1,1,10,4,,0.00,,,276
2012-10-26,82,70,59,57,53,45,88,55,26,30.01,29.93,29.89,2,1,1,7,1,,0.00,,,310
2012-10-27,84,72,59,57,51,45,88,52,25,30.04,29.95,29.92,2,1,1,9,2,,0.00,,Fog,317
2012-10-28,84,72,60,59,54,46,83,59,27,30.06,29.98,29.95,1,1,0,7,1,,0.00,,,279
2012-10-29,82,70,59,59,56,54,88,63,37,30.01,29.96,29.92,1,1,0,8,2,,0.00,,Fog,274
2012-10-30,84,72,60,61,58,55,88,66,37,30.01,29.94,29.89,1,1,0,9,2,,0.00,,Fog,280
2012-10-31,84,72,60,63,59,57,88,67,42,30.01,29.94,29.89,1,0,0,6,1,,0.00,,Fog,299